Time;durP1;ratioP1;P1;durP2;ratioP2;P2;SDS_P1;SDS_P2;PMS_P1;PMS_P2;Temp;Humidity;BMP_temperature;BMP_pressure;BME280_temperature;BME280_humidity;BME280_pressure;Samples;Min_cycle;Max_cycle;Signal;HPM_P1;HPM_P2
2023/08/27 00:02:09;;;;;;;0.13;0.13;;;;;;;15.12;100.00;99190.34;7400119;19;20782;-56
2023/08/27 00:04:35;;;;;;;0.40;0.32;;;;;;;15.01;100.00;99192.47;7399185;19;20324;-56
2023/08/27 00:07:01;;;;;;;2.33;1.40;;;;;;;14.95;100.00;99195.31;7397467;19;20014;-57
2023/08/27 00:09:27;;;;;;;13.93;2.05;;;;;;;14.82;100.00;99189.56;7398617;19;20018;-57
2023/08/27 00:11:54;;;;;;;0.40;0.40;;;;;;;24.76;79.91;99167.00;7398775;19;20022;-56
2023/08/27 00:14:20;;;;;;;0.40;0.30;;;;;;;15.78;100.00;99185.38;7399387;19;20379;-56
2023/08/27 00:16:46;;;;;;;0.30;0.30;;;;;;;14.93;100.00;99178.25;7398602;19;20019;-56
2023/08/27 00:19:14;;;;;;;0.45;0.20;;;;;;;14.63;100.00;99174.66;7397855;19;20030;-57
2023/08/27 00:21:41;;;;;;;0.20;0.10;;;;;;;14.43;100.00;99183.44;7399167;19;20056;-56
2023/08/27 00:24:07;;;;;;;0.63;0.40;;;;;;;14.34;100.00;99172.53;7397690;19;20014;-56
2023/08/27 00:26:34;;;;;;;0.20;0.20;;;;;;;14.32;100.00;99177.91;7396246;19;20116;-56
2023/08/27 00:29:00;;;;;;;0.30;0.30;;;;;;;14.27;100.00;99164.69;7398297;19;20013;-56
2023/08/27 00:31:26;;;;;;;0.30;0.30;;;;;;;17.24;100.00;99163.88;7397907;19;20011;-56
2023/08/27 00:33:52;;;;;;;5.25;0.40;;;;;;;15.17;100.00;99167.09;7400661;19;20036;-56
2023/08/27 00:36:18;;;;;;;0.30;0.30;;;;;;;14.34;100.00;99169.72;7397115;19;20006;-56
2023/08/27 00:38:44;;;;;;;1.85;0.60;;;;;;;14.16;100.00;99165.47;7398245;19;20038;-56
2023/08/27 00:41:11;;;;;;;0.15;0.15;;;;;;;14.06;100.00;99160.69;7396809;19;20038;-56
2023/08/27 00:43:37;;;;;;;0.50;0.50;;;;;;;13.96;100.00;99162.28;7396196;19;20021;-56
2023/08/27 00:46:05;;;;;;;0.20;0.20;;;;;;;13.89;100.00;99169.16;7395823;19;20010;-57
2023/08/27 00:48:32;;;;;;;0.50;0.25;;;;;;;13.82;100.00;99164.09;7396687;19;20010;-56
2023/08/27 00:50:58;;;;;;;1.33;0.85;;;;;;;13.78;100.00;99158.00;7396617;19;20051;-56
2023/08/27 00:53:25;;;;;;;1.02;0.73;;;;;;;13.83;100.00;99153.66;7396502;19;20011;-56
2023/08/27 00:55:52;;;;;;;0.22;0.22;;;;;;;31.40;52.70;99133.63;7397258;19;20461;-56
2023/08/27 00:58:18;;;;;;;0.25;0.22;;;;;;;34.07;42.08;99133.53;7395127;19;20021;-56
2023/08/27 01:00:44;;;;;;;0.32;0.32;;;;;;;35.01;38.76;99127.22;7398187;19;20021;-56
2023/08/27 01:03:11;;;;;;;0.68;0.60;;;;;;;35.29;36.83;99134.09;7399397;19;20066;-56
2023/08/27 01:05:38;;;;;;;0.30;0.30;;;;;;;35.90;35.06;99130.50;7396951;19;20355;-56
2023/08/27 01:08:12;;;;;;;0.47;0.47;;;;;;;35.97;34.21;99132.22;7395644;19;20010;-56
2023/08/27 01:11:05;;;;;;;0.63;0.52;;;;;;;36.10;33.24;99125.44;7397116;19;20011;-56
2023/08/27 01:13:50;;;;;;;0.20;0.20;;;;;;;36.11;32.67;99130.56;7402377;19;20015;-56
2023/08/27 01:16:20;;;;;;;2.55;0.35;;;;;;;36.13;32.37;99129.88;7394784;19;20014;-56
2023/08/27 01:18:46;;;;;;;0.35;0.35;;;;;;;35.98;32.36;99146.03;7394966;19;20014;-56
2023/08/27 01:21:30;;;;;;;1.85;0.20;;;;;;;36.07;32.16;99149.97;7395907;19;20018;-57
2023/08/27 01:23:57;;;;;;;2.38;0.75;;;;;;;36.06;32.28;99145.59;7395879;19;20018;-56
2023/08/27 01:26:44;;;;;;;0.20;0.20;;;;;;;36.38;31.85;99137.97;7394122;19;20010;-56
2023/08/27 01:29:31;;;;;;;0.28;0.28;;;;;;;36.52;31.23;99135.56;7395757;19;20007;-56
2023/08/27 01:32:25;;;;;;;0.47;0.40;;;;;;;36.48;31.12;99126.72;7398005;19;20013;-56
2023/08/27 01:34:53;;;;;;;1.70;0.82;;;;;;;36.41;30.67;99130.81;7394302;19;20014;-56
2023/08/27 01:37:21;;;;;;;1.73;0.98;;;;;;;36.27;30.81;99122.41;7394908;19;20454;-56
2023/08/27 01:40:01;;;;;;;2.90;0.43;;;;;;;36.19;30.53;99118.50;7395514;19;20022;-56
2023/08/27 01:42:27;;;;;;;0.20;0.20;;;;;;;36.20;30.84;99129.41;7394817;19;20010;-56
2023/08/27 01:44:55;;;;;;;0.30;0.30;;;;;;;36.12;30.45;99123.34;7396418;19;20616;-56
2023/08/27 01:47:22;;;;;;;0.98;0.85;;;;;;;36.02;30.51;99116.47;7394263;19;20003;-56
2023/08/27 01:49:51;;;;;;;0.30;0.30;;;;;;;36.07;30.03;99115.16;7393796;19;20348;-56
2023/08/27 01:52:17;;;;;;;3.85;1.05;;;;;;;36.06;29.93;99110.81;7394464;19;20007;-56
2023/08/27 01:54:43;;;;;;;0.20;0.20;;;;;;;36.25;29.69;99118.69;7394077;19;20042;-56
2023/08/27 01:57:11;;;;;;;0.82;0.82;;;;;;;36.22;29.94;99122.94;7396031;19;20023;-56
2023/08/27 01:59:37;;;;;;;0.40;0.40;;;;;;;36.15;29.95;99121.22;7394247;19;20015;-56
2023/08/27 02:02:03;;;;;;;0.20;0.20;;;;;;;34.44;31.81;99124.19;7398918;19;20066;-56
2023/08/27 02:04:29;;;;;;;0.20;0.20;;;;;;;35.98;30.08;99113.41;7394090;19;20328;-56
2023/08/27 02:06:55;;;;;;;1.17;0.43;;;;;;;36.06;30.15;99111.53;7391326;19;20022;-56
2023/08/27 02:09:22;;;;;;;1.50;0.50;;;;;;;36.17;29.87;99110.44;7396185;19;20643;-56
2023/08/27 02:11:49;;;;;;;0.30;0.30;;;;;;;36.17;29.69;99119.16;7395426;19;20011;-56
2023/08/27 02:14:16;;;;;;;0.40;0.40;;;;;;;36.03;29.88;99115.78;7394889;19;20018;-56
2023/08/27 02:16:42;;;;;;;0.95;0.40;;;;;;;35.92;29.85;99116.81;7393378;19;20018;-56
2023/08/27 02:19:08;;;;;;;0.38;0.38;;;;;;;35.68;30.07;99116.72;7395616;19;20481;-56
2023/08/27 02:21:34;;;;;;;0.50;0.50;;;;;;;35.88;30.27;99127.53;7392948;19;20031;-56
2023/08/27 02:24:00;;;;;;;0.30;0.30;;;;;;;36.13;29.91;99124.06;7393748;19;20034;-57
2023/08/27 02:26:27;;;;;;;0.43;0.30;;;;;;;36.05;29.91;99130.34;7392037;19;20023;-57
2023/08/27 02:28:54;;;;;;;0.25;0.25;;;;;;;35.87;30.31;99131.84;7396223;19;20032;-57
2023/08/27 02:31:20;;;;;;;0.43;0.30;;;;;;;35.72;29.94;99128.47;7393363;19;20459;-57
2023/08/27 02:33:46;;;;;;;0.93;0.93;;;;;;;35.83;29.92;99131.69;7399041;19;20011;-57
2023/08/27 02:36:13;;;;;;;0.85;0.30;;;;;;;35.93;29.96;99123.38;7392557;19;20010;-56
2023/08/27 02:38:39;;;;;;;0.35;0.35;;;;;;;35.98;30.08;99125.00;7396533;19;20070;-56
2023/08/27 02:41:05;;;;;;;0.73;0.20;;;;;;;36.35;29.79;99128.47;7393326;19;20014;-56
2023/08/27 02:43:31;;;;;;;0.60;0.60;;;;;;;36.46;29.50;99127.41;7394638;19;20042;-56
2023/08/27 02:45:58;;;;;;;0.45;0.30;;;;;;;36.60;29.27;99135.81;7391686;19;20486;-56
2023/08/27 02:48:24;;;;;;;0.90;0.65;;;;;;;36.31;29.39;99136.28;7392686;19;20459;-56
2023/08/27 02:50:51;;;;;;;0.70;0.50;;;;;;;36.37;29.36;99137.22;7393887;19;20091;-56
2023/08/27 02:53:17;;;;;;;1.05;0.85;;;;;;;34.87;30.04;99129.56;7393152;19;20019;-57
2023/08/27 02:55:44;;;;;;;4.97;1.02;;;;;;;33.89;32.81;99140.66;7393691;19;20021;-56
2023/08/27 02:58:10;;;;;;;0.95;0.47;;;;;;;35.66;31.07;99145.63;7392951;19;20455;-56
2023/08/27 03:00:40;;;;;;;2.28;0.32;;;;;;;35.87;31.03;99134.72;7393647;19;20014;-56
2023/08/27 03:03:07;;;;;;;0.40;0.40;;;;;;;35.74;30.79;99133.56;7395560;19;20472;-56
2023/08/27 03:05:34;;;;;;;1.48;1.10;;;;;;;35.92;30.53;99134.22;7391613;19;20051;-56
2023/08/27 03:08:00;;;;;;;0.55;0.40;;;;;;;36.34;30.25;99132.03;7396431;19;20018;-56
2023/08/27 03:10:26;;;;;;;3.30;0.50;;;;;;;36.62;29.93;99133.00;7399604;19;20404;-56
2023/08/27 03:12:52;;;;;;;0.38;0.30;;;;;;;36.78;29.98;99133.47;7399570;19;20483;-57
2023/08/27 03:15:18;;;;;;;0.43;0.40;;;;;;;36.92;29.73;99136.13;7401618;19;20332;-56
2023/08/27 03:17:44;;;;;;;0.30;0.30;;;;;;;37.12;29.89;99125.84;7399867;19;20339;-56
2023/08/27 03:20:11;;;;;;;0.63;0.30;;;;;;;37.22;29.62;99129.06;7397891;19;20074;-56
2023/08/27 03:22:37;;;;;;;0.30;0.30;;;;;;;37.04;30.01;99131.41;7399162;19;20390;-56
2023/08/27 03:25:03;;;;;;;0.65;0.52;;;;;;;22.60;50.65;99145.19;7398432;19;20066;-57
2023/08/27 03:27:34;;;;;;;0.20;0.20;;;;;;;35.38;33.02;99129.34;7398029;19;20014;-57
2023/08/27 03:30:00;;;;;;;1.00;0.75;;;;;;;37.15;31.35;99129.53;7400175;19;20014;-57
2023/08/27 03:32:26;;;;;;;2.90;0.65;;;;;;;37.15;30.82;99139.00;7400902;19;20018;-57
2023/08/27 03:34:52;;;;;;;0.40;0.40;;;;;;;34.55;33.12;99122.47;7400392;19;20010;-57
2023/08/27 03:37:18;;;;;;;2.60;1.15;;;;;;;36.86;30.55;99127.91;7401690;19;20010;-57
2023/08/27 03:39:45;;;;;;;1.95;0.77;;;;;;;37.07;30.67;99118.44;7399267;19;20017;-56
2023/08/27 03:42:11;;;;;;;2.20;0.82;;;;;;;36.84;30.74;99118.44;7398581;19;20011;-56
2023/08/27 03:44:37;;;;;;;0.60;0.28;;;;;;;35.68;32.23;99122.53;7397965;19;20006;-57
2023/08/27 03:47:04;;;;;;;1.85;0.30;;;;;;;36.59;30.92;99116.91;7396539;19;20022;-56
2023/08/27 03:49:31;;;;;;;1.08;0.50;;;;;;;36.62;30.99;99109.78;7400594;19;20037;-56
2023/08/27 03:51:57;;;;;;;3.22;0.82;;;;;;;37.02;30.41;99116.84;7398844;19;20347;-56
2023/08/27 03:54:23;;;;;;;1.02;0.40;;;;;;;37.31;30.40;99115.50;7398588;19;20011;-56
2023/08/27 03:56:50;;;;;;;0.45;0.30;;;;;;;37.07;30.33;99111.88;7400796;19;20098;-56
2023/08/27 03:59:17;;;;;;;1.38;0.50;;;;;;;36.90;30.57;99116.47;7397760;19;20018;-56
2023/08/27 04:01:44;;;;;;;1.33;0.77;;;;;;;36.73;30.65;99107.94;7399580;19;20044;-56
2023/08/27 04:04:10;;;;;;;0.73;0.68;;;;;;;36.74;30.73;99110.13;7398758;19;20009;-56
2023/08/27 04:06:36;;;;;;;8.25;1.55;;;;;;;36.73;30.92;99114.47;7396385;19;20015;-57
2023/08/27 04:09:04;;;;;;;0.70;0.60;;;;;;;37.27;30.41;99105.94;7398320;19;20050;-57
2023/08/27 04:11:30;;;;;;;1.35;0.68;;;;;;;37.23;29.83;99101.47;7398191;19;20107;-56
2023/08/27 04:13:57;;;;;;;1.67;0.88;;;;;;;37.23;30.04;99103.66;7399598;19;20011;-57
2023/08/27 04:16:23;;;;;;;1.23;0.80;;;;;;;37.24;29.87;99102.22;7398819;19;20408;-57
2023/08/27 04:18:49;;;;;;;0.60;0.40;;;;;;;37.09;29.92;99106.13;7396860;19;20015;-56
2023/08/27 04:21:15;;;;;;;1.60;0.98;;;;;;;37.01;29.78;99106.66;7397757;19;20341;-56
2023/08/27 04:23:41;;;;;;;1.33;0.60;;;;;;;37.12;29.67;99108.41;7397299;19;20018;-56
2023/08/27 04:26:07;;;;;;;1.38;1.15;;;;;;;29.50;44.35;99112.63;7399237;19;20011;-56
2023/08/27 04:28:33;;;;;;;1.42;0.60;;;;;;;36.19;32.84;99101.81;7397219;19;20022;-56
2023/08/27 04:30:59;;;;;;;0.85;0.30;;;;;;;37.29;31.05;99106.00;7397687;19;20022;-56
2023/08/27 04:33:26;;;;;;;2.33;0.95;;;;;;;37.56;30.33;99102.41;7400262;19;20154;-56
2023/08/27 04:35:52;;;;;;;3.30;0.63;;;;;;;38.01;29.97;99104.38;7396380;19;20017;-57
2023/08/27 04:38:22;;;;;;;0.20;0.20;;;;;;;38.19;29.48;99099.75;7399708;19;20015;-56
2023/08/27 04:40:52;;;;;;;4.95;0.65;;;;;;;38.55;29.03;99094.81;7396293;19;20011;-57
2023/08/27 04:43:20;;;;;;;0.93;0.30;;;;;;;38.74;28.97;99098.19;7395926;19;20010;-57
2023/08/27 04:45:46;;;;;;;0.43;0.40;;;;;;;36.92;30.77;99102.03;7397566;19;20374;-56
2023/08/27 04:48:12;;;;;;;0.45;0.32;;;;;;;38.25;29.29;99094.09;7398398;19;20039;-56
2023/08/27 04:50:42;;;;;;;1.27;0.45;;;;;;;38.45;28.76;99088.03;7396161;19;20038;-56
2023/08/27 04:53:08;;;;;;;0.40;0.40;;;;;;;38.23;29.21;99096.19;7398051;19;20018;-56
2023/08/27 04:55:35;;;;;;;0.30;0.30;;;;;;;34.47;32.46;99090.31;7396668;19;20015;-56
2023/08/27 04:58:01;;;;;;;0.98;0.52;;;;;;;34.49;33.64;99096.19;7396238;19;20022;-56
2023/08/27 05:00:27;;;;;;;0.90;0.60;;;;;;;30.32;36.83;99104.59;7397443;19;20082;-56
2023/08/27 05:02:53;;;;;;;0.52;0.52;;;;;;;34.67;33.83;99096.94;7398243;19;20014;-56
2023/08/27 05:05:19;;;;;;;1.65;1.02;;;;;;;37.16;31.24;99091.13;7396469;19;20010;-56
2023/08/27 05:07:47;;;;;;;0.77;0.30;;;;;;;37.39;30.71;99083.78;7394726;19;20031;-57
2023/08/27 05:10:13;;;;;;;0.22;0.22;;;;;;;37.54;30.13;99090.72;7395769;19;20342;-57
2023/08/27 05:12:40;;;;;;;0.30;0.20;;;;;;;28.63;39.56;99102.88;7396116;19;20019;-57
2023/08/27 05:15:07;;;;;;;0.50;0.50;;;;;;;32.31;39.13;99097.97;7395102;19;20010;-57
2023/08/27 05:17:34;;;;;;;2.70;0.65;;;;;;;36.16;33.23;99093.72;7394569;19;20003;-57
2023/08/27 05:20:00;;;;;;;1.13;0.60;;;;;;;34.82;34.91;99096.09;7394125;19;20034;-57
2023/08/27 05:22:26;;;;;;;1.02;0.60;;;;;;;36.86;32.44;99086.56;7397024;19;20038;-56
2023/08/27 05:24:52;;;;;;;0.30;0.30;;;;;;;25.70;45.12;99113.06;7395313;19;20501;-56
2023/08/27 05:27:18;;;;;;;0.50;0.43;;;;;;;19.36;100.00;99120.06;7393828;19;20466;-56
2023/08/27 05:29:44;;;;;;;0.50;0.50;;;;;;;29.89;63.74;99107.84;7395569;19;20011;-57
2023/08/27 05:32:11;;;;;;;1.60;0.65;;;;;;;35.39;40.60;99102.59;7395191;19;20022;-57
2023/08/27 05:34:37;;;;;;;0.47;0.47;;;;;;;36.45;37.21;99107.78;7394923;19;20032;-57
2023/08/27 05:37:04;;;;;;;2.40;0.52;;;;;;;36.82;35.83;99110.38;7396753;19;20074;-58
2023/08/27 05:39:32;;;;;;;0.45;0.43;;;;;;;36.90;35.33;99107.78;7395055;19;20006;-58
2023/08/27 05:41:58;;;;;;;0.52;0.40;;;;;;;37.18;34.54;99099.91;7394602;19;20028;-59
2023/08/27 05:44:24;;;;;;;2.60;0.77;;;;;;;37.25;34.27;99104.44;7394728;19;20011;-59
2023/08/27 05:46:51;;;;;;;0.30;0.30;;;;;;;31.18;38.88;99115.16;7395506;19;20021;-60
2023/08/27 05:49:18;;;;;;;0.43;0.22;;;;;;;19.78;100.00;99129.19;7397175;19;20107;-59
2023/08/27 05:51:46;;;;;;;2.35;0.82;;;;;;;20.37;100.00;99138.53;7397218;19;20014;-58
2023/08/27 05:54:12;;;;;;;1.40;0.52;;;;;;;31.85;57.15;99122.28;7396875;19;20014;-58
2023/08/27 05:56:38;;;;;;;2.53;0.38;;;;;;;30.60;50.50;99120.56;7396074;19;20015;-57
2023/08/27 05:59:05;;;;;;;3.13;0.30;;;;;;;36.35;40.89;99116.09;7395512;19;20742;-57
2023/08/27 06:01:31;;;;;;;0.17;0.17;;;;;;;37.21;39.11;99104.31;7396428;19;20014;-57
2023/08/27 06:03:59;;;;;;;2.17;0.73;;;;;;;38.15;37.20;99102.56;7395862;19;20015;-58
2023/08/27 06:06:25;;;;;;;1.30;0.20;;;;;;;38.71;35.85;99102.47;7394944;19;20410;-58
2023/08/27 06:08:51;;;;;;;1.23;0.20;;;;;;;37.14;38.72;99113.56;7396444;19;20025;-58
2023/08/27 06:11:17;;;;;;;0.65;0.30;;;;;;;38.65;35.56;99115.44;7396832;19;20021;-58
2023/08/27 06:13:43;;;;;;;0.10;0.10;;;;;;;30.44;43.58;99120.38;7396639;19;20371;-58
2023/08/27 06:16:10;;;;;;;1.27;0.45;;;;;;;29.91;44.75;99122.31;7396716;19;20349;-59
2023/08/27 06:18:36;;;;;;;0.45;0.45;;;;;;;21.36;100.00;99139.44;7395385;19;20006;-58
2023/08/27 06:21:03;;;;;;;1.65;0.43;;;;;;;31.61;55.98;99114.53;7397368;19;20018;-58
2023/08/27 06:23:30;;;;;;;0.40;0.30;;;;;;;22.52;100.00;99126.66;7397507;19;20018;-57
2023/08/27 06:26:03;;;;;;;1.38;0.55;;;;;;;36.48;47.31;99112.22;7397410;19;20018;-58
2023/08/27 06:28:30;;;;;;;2.22;0.40;;;;;;;38.74;39.77;99106.91;7393234;19;20018;-58
2023/08/27 06:30:56;;;;;;;0.77;0.32;;;;;;;39.50;36.99;99102.00;7394463;19;20022;-58
2023/08/27 06:33:22;;;;;;;1.27;0.45;;;;;;;39.76;35.64;99111.28;7395912;19;20487;-58
2023/08/27 06:35:48;;;;;;;8.07;1.13;;;;;;;33.86;49.59;99113.81;7392187;19;20762;-58
2023/08/27 06:38:14;;;;;;;1.63;0.70;;;;;;;39.02;38.00;99101.72;7392369;19;20006;-58
2023/08/27 06:40:41;;;;;;;0.10;0.10;;;;;;;39.93;35.64;99113.78;7392183;19;20015;-58
2023/08/27 06:43:08;;;;;;;0.30;0.20;;;;;;;40.32;34.35;99109.38;7396499;19;20019;-58
2023/08/27 06:45:42;;;;;;;2.53;0.20;;;;;;;38.85;36.73;99112.28;7392942;19;20010;-58
2023/08/27 06:48:09;;;;;;;0.35;0.20;;;;;;;40.07;34.66;99116.97;7394090;19;20010;-58
2023/08/27 06:50:36;;;;;;;8.73;0.45;;;;;;;40.24;34.12;99117.25;7393876;19;20011;-58
2023/08/27 06:53:04;;;;;;;2.22;0.52;;;;;;;40.36;33.45;99118.19;7394976;19;20419;-59
2023/08/27 06:55:30;;;;;;;1.60;0.43;;;;;;;40.41;32.86;99116.84;7392751;19;20011;-58
2023/08/27 06:57:57;;;;;;;1.55;0.85;;;;;;;40.33;32.97;99116.66;7394623;19;20015;-58
2023/08/27 07:00:25;;;;;;;0.60;0.30;;;;;;;40.30;32.67;99115.19;7394300;19;20015;-57
2023/08/27 07:02:51;;;;;;;0.52;0.40;;;;;;;40.33;32.42;99113.03;7394435;19;20399;-58
2023/08/27 07:05:18;;;;;;;0.20;0.20;;;;;;;40.92;31.81;99123.44;7396045;19;20018;-58
2023/08/27 07:07:44;;;;;;;0.10;0.10;;;;;;;40.87;32.14;99116.81;7395766;19;20014;-58
2023/08/27 07:10:11;;;;;;;0.45;0.30;;;;;;;37.10;34.91;99140.31;7394013;19;20021;-58
2023/08/27 07:12:38;;;;;;;0.50;0.10;;;;;;;39.32;33.82;99128.59;7394599;19;20495;-59
2023/08/27 07:15:07;;;;;;;2.45;0.30;;;;;;;39.92;32.75;99129.81;7396509;19;20074;-59
2023/08/27 07:17:34;;;;;;;0.22;0.10;;;;;;;40.13;32.18;99139.69;7393531;19;20074;-59
2023/08/27 07:20:01;;;;;;;1.02;0.73;;;;;;;40.42;31.94;99135.06;7391664;19;20019;-59
2023/08/27 07:22:28;;;;;;;0.20;0.20;;;;;;;40.56;30.99;99144.06;7395846;19;20034;-59
2023/08/27 07:24:54;;;;;;;0.30;0.30;;;;;;;40.50;31.27;99138.88;7391961;19;20066;-59
2023/08/27 07:27:20;;;;;;;0.20;0.20;;;;;;;40.44;31.26;99149.72;7393384;19;20002;-59
2023/08/27 07:29:47;;;;;;;0.73;0.40;;;;;;;40.51;31.13;99136.69;7395461;19;20010;-59
2023/08/27 07:32:13;;;;;;;0.17;0.17;;;;;;;40.22;31.29;99143.50;7398089;19;20007;-59
2023/08/27 07:34:39;;;;;;;0.10;0.10;;;;;;;40.25;31.34;99142.06;7396995;19;20013;-59
2023/08/27 07:37:06;;;;;;;0.10;0.00;;;;;;;40.42;30.81;99143.84;7395976;19;20007;-59
2023/08/27 07:39:32;;;;;;;0.15;0.13;;;;;;;40.61;30.87;99146.34;7396528;19;20015;-58
2023/08/27 07:41:59;;;;;;;0.20;0.20;;;;;;;40.70;30.67;99150.13;7394756;19;20010;-58
2023/08/27 07:44:26;;;;;;;0.10;0.10;;;;;;;40.74;30.56;99145.09;7395282;19;20010;-59
2023/08/27 07:46:52;;;;;;;0.40;0.20;;;;;;;40.85;30.35;99148.19;7394705;19;20015;-59
2023/08/27 07:49:18;;;;;;;0.20;0.10;;;;;;;40.82;30.24;99156.16;7396730;19;20017;-58
2023/08/27 07:51:45;;;;;;;0.43;0.10;;;;;;;41.00;29.92;99152.78;7396051;19;20021;-58
2023/08/27 07:54:12;;;;;;;0.20;0.20;;;;;;;40.81;29.98;99154.66;7392664;19;20014;-58
2023/08/27 07:56:38;;;;;;;0.40;0.40;;;;;;;40.46;30.55;99149.75;7401832;19;20093;-59
2023/08/27 07:59:04;;;;;;;0.30;0.10;;;;;;;40.50;29.95;99144.00;7401410;19;20019;-59
2023/08/27 08:01:31;;;;;;;0.10;0.10;;;;;;;40.09;29.73;99151.28;7400785;19;20014;-59
2023/08/27 08:03:57;;;;;;;0.10;0.05;;;;;;;40.04;30.54;99152.66;7402213;19;20034;-59
2023/08/27 08:06:23;;;;;;;0.30;0.20;;;;;;;40.09;30.81;99154.94;7402738;19;20090;-59
2023/08/27 08:08:49;;;;;;;1.00;0.45;;;;;;;40.20;30.89;99152.22;7404079;19;20040;-59
2023/08/27 08:11:16;;;;;;;0.28;0.17;;;;;;;40.39;29.99;99156.91;7403462;19;20017;-59
2023/08/27 08:13:43;;;;;;;0.45;0.45;;;;;;;40.43;30.67;99151.16;7402396;19;20112;-59
2023/08/27 08:16:09;;;;;;;0.32;0.17;;;;;;;40.79;29.68;99148.81;7403801;19;20017;-59
2023/08/27 08:18:35;;;;;;;0.85;0.40;;;;;;;40.93;29.83;99160.72;7402294;19;20010;-60
2023/08/27 08:21:02;;;;;;;0.20;0.10;;;;;;;41.07;29.66;99160.19;7402248;19;20066;-60
2023/08/27 08:23:28;;;;;;;3.10;0.85;;;;;;;41.10;29.83;99162.44;7402685;19;20019;-61
2023/08/27 08:25:55;;;;;;;0.93;0.40;;;;;;;41.20;29.85;99165.47;7403199;19;20010;-60
2023/08/27 08:28:22;;;;;;;0.68;0.50;;;;;;;41.23;29.71;99157.50;7402772;19;20017;-60
2023/08/27 08:30:49;;;;;;;1.95;0.55;;;;;;;41.63;29.47;99157.28;7404124;19;20010;-60
2023/08/27 08:33:16;;;;;;;0.20;0.20;;;;;;;41.64;29.76;99152.91;7401590;19;20022;-60
2023/08/27 08:35:43;;;;;;;0.38;0.30;;;;;;;41.58;30.19;99163.06;7401762;19;20014;-60
2023/08/27 08:38:10;;;;;;;2.22;0.85;;;;;;;41.51;29.76;99164.47;7400680;19;20010;-60
2023/08/27 08:40:46;;;;;;;0.25;0.20;;;;;;;41.27;29.88;99164.16;7401408;19;20462;-59
2023/08/27 08:43:36;;;;;;;0.90;0.50;;;;;;;40.99;29.85;99168.84;7402610;19;20014;-59
2023/08/27 08:46:04;;;;;;;0.47;0.40;;;;;;;32.58;36.12;99172.81;7398957;19;20007;-59
2023/08/27 08:48:38;;;;;;;0.20;0.15;;;;;;;28.67;58.78;99169.03;7402187;19;20458;-58
2023/08/27 08:51:07;;;;;;;0.60;0.25;;;;;;;39.37;34.85;99156.41;7397458;19;20347;-58
2023/08/27 08:53:37;;;;;;;0.45;0.35;;;;;;;31.38;42.74;99173.78;7398064;19;20462;-58
2023/08/27 08:56:07;;;;;;;0.30;0.30;;;;;;;35.06;44.09;99169.41;7398438;19;20015;-58
2023/08/27 08:58:35;;;;;;;0.30;0.20;;;;;;;37.68;39.36;99160.88;7401248;19;20022;-58
2023/08/27 09:01:03;;;;;;;0.35;0.30;;;;;;;38.71;36.51;99160.69;7397018;19;20480;-58
2023/08/27 09:03:32;;;;;;;0.30;0.20;;;;;;;28.54;50.23;99167.50;7400484;19;20014;-58
2023/08/27 09:05:59;;;;;;;0.65;0.25;;;;;;;38.60;37.72;99156.78;7395485;19;20002;-58
2023/08/27 09:08:26;;;;;;;0.10;0.03;;;;;;;28.84;55.97;99174.44;7394654;19;20006;-58
2023/08/27 09:10:53;;;;;;;1.33;0.82;;;;;;;38.12;39.64;99156.28;7397955;19;20010;-58
2023/08/27 09:13:20;;;;;;;0.52;0.20;;;;;;;39.61;35.75;99156.19;7396439;19;20108;-58
2023/08/27 09:15:48;;;;;;;1.25;0.40;;;;;;;40.33;33.99;99153.91;7397013;19;20026;-58
2023/08/27 09:18:15;;;;;;;0.82;0.10;;;;;;;40.00;34.29;99161.34;7395700;19;20369;-58
2023/08/27 09:20:45;;;;;;;2.15;0.73;;;;;;;40.00;33.83;99149.66;7396348;19;20035;-58
2023/08/27 09:23:13;;;;;;;4.75;0.50;;;;;;;40.43;32.85;99159.91;7399868;19;20010;-58
2023/08/27 09:25:39;;;;;;;0.28;0.28;;;;;;;40.30;32.84;99166.97;7396384;19;20021;-58
2023/08/27 09:28:08;;;;;;;3.53;0.35;;;;;;;40.08;32.88;99162.22;7396569;19;20022;-59
2023/08/27 09:30:35;;;;;;;0.20;0.10;;;;;;;35.45;37.07;99168.72;7396727;19;20029;-58
2023/08/27 09:33:02;;;;;;;0.25;0.22;;;;;;;37.90;36.54;99158.63;7398430;19;20014;-58
2023/08/27 09:35:40;;;;;;;0.20;0.20;;;;;;;39.55;33.72;99161.88;7399595;19;20019;-58
2023/08/27 09:38:10;;;;;;;0.10;0.05;;;;;;;39.87;33.14;99166.16;7396089;19;20031;-58
2023/08/27 09:40:36;;;;;;;1.30;0.37;;;;;;;30.91;43.52;99183.38;7400108;19;20035;-58
2023/08/27 09:43:09;;;;;;;0.30;0.30;;;;;;;39.53;34.02;99171.28;7400493;19;20019;-58
2023/08/27 09:45:37;;;;;;;0.40;0.40;;;;;;;40.33;32.87;99177.97;7398809;19;20098;-57
2023/08/27 09:48:04;;;;;;;0.10;0.10;;;;;;;41.13;32.15;99177.81;7399443;19;20018;-57
2023/08/27 09:50:31;;;;;;;0.50;0.50;;;;;;;41.54;31.66;99168.88;7394370;19;20014;-57
2023/08/27 09:53:16;;;;;;;0.10;0.10;;;;;;;41.72;30.48;99173.47;7399169;19;20010;-58
2023/08/27 09:55:43;;;;;;;0.30;0.30;;;;;;;41.75;30.79;99175.00;7398361;19;20015;-59
2023/08/27 09:58:10;;;;;;;0.43;0.43;;;;;;;41.61;30.42;99174.81;7399464;19;20010;-58
2023/08/27 10:00:36;;;;;;;0.10;0.10;;;;;;;41.77;30.02;99172.81;7395567;19;20066;-58
2023/08/27 10:03:03;;;;;;;0.30;0.25;;;;;;;41.39;29.87;99176.00;7397660;19;20428;-58
2023/08/27 10:05:33;;;;;;;0.10;0.10;;;;;;;41.17;30.09;99177.88;7395281;19;20014;-58
2023/08/27 10:08:00;;;;;;;0.10;0.10;;;;;;;41.27;30.32;99178.78;7397938;19;20477;-59
2023/08/27 10:10:28;;;;;;;0.10;0.10;;;;;;;41.80;29.99;99170.66;7394728;19;20305;-58
2023/08/27 10:12:55;;;;;;;1.65;0.30;;;;;;;42.18;30.34;99168.16;7397976;19;20019;-59
2023/08/27 10:15:24;;;;;;;0.77;0.25;;;;;;;42.56;30.06;99162.63;7399167;19;20006;-60
2023/08/27 10:17:52;;;;;;;0.10;0.00;;;;;;;42.39;30.54;99166.88;7396305;19;20006;-59
2023/08/27 10:20:20;;;;;;;0.47;0.25;;;;;;;42.40;30.23;99173.47;7397137;19;20047;-58
2023/08/27 10:22:47;;;;;;;0.38;0.38;;;;;;;36.32;34.49;99182.00;7396716;19;20022;-59
2023/08/27 10:25:17;;;;;;;2.35;0.20;;;;;;;23.08;100.00;99201.88;7394001;19;20080;-59
2023/08/27 10:27:47;;;;;;;2.90;0.10;;;;;;;20.48;100.00;99213.81;7392058;19;20047;-59
2023/08/27 10:30:15;;;;;;;1.65;0.52;;;;;;;19.42;100.00;99211.06;7396388;19;20099;-58
2023/08/27 10:32:42;;;;;;;0.73;0.32;;;;;;;18.64;100.00;99217.78;7396246;19;20021;-58
2023/08/27 10:35:09;;;;;;;0.05;0.00;;;;;;;17.98;100.00;99219.88;7394299;19;20481;-59
2023/08/27 10:37:39;;;;;;;1.67;0.47;;;;;;;17.43;100.00;99232.16;7393961;19;20015;-58
2023/08/27 10:40:11;;;;;;;0.52;0.15;;;;;;;18.38;100.00;99222.69;7394315;19;20142;-58
2023/08/27 10:42:38;;;;;;;0.20;0.10;;;;;;;17.45;100.00;99235.19;7391038;19;20015;-58
2023/08/27 10:45:11;;;;;;;0.22;0.20;;;;;;;17.58;100.00;99231.66;7392331;19;20030;-58
2023/08/27 10:47:38;;;;;;;0.10;0.00;;;;;;;17.11;100.00;99234.97;7392143;19;20014;-58
2023/08/27 10:50:05;;;;;;;1.00;0.43;;;;;;;17.37;100.00;99234.28;7393805;19;20031;-58
2023/08/27 10:52:48;;;;;;;4.18;0.90;;;;;;;16.84;100.00;99222.09;7397867;19;20022;-57
2023/08/27 10:55:14;;;;;;;0.35;0.15;;;;;;;18.05;100.00;99221.28;7394353;19;20023;-57
2023/08/27 10:57:40;;;;;;;0.75;0.38;;;;;;;18.54;100.00;99236.44;7398762;19;20013;-57
2023/08/27 11:00:10;;;;;;;0.20;0.10;;;;;;;18.74;100.00;99249.09;7393717;19;20018;-57
2023/08/27 11:02:57;;;;;;;0.10;0.10;;;;;;;19.06;100.00;99246.06;7395081;19;20033;-57
2023/08/27 11:05:28;;;;;;;0.30;0.30;;;;;;;18.75;100.00;99250.63;7389804;19;20736;-59
2023/08/27 11:08:01;;;;;;;1.98;0.15;;;;;;;17.87;100.00;99253.91;7390304;19;20011;-59
2023/08/27 11:10:31;;;;;;;0.20;0.10;;;;;;;18.27;100.00;99251.09;7391417;19;20010;-59
2023/08/27 11:12:58;;;;;;;0.10;0.00;;;;;;;18.76;100.00;99244.41;7395013;19;20007;-58
2023/08/27 11:15:31;;;;;;;0.10;0.10;;;;;;;19.34;100.00;99246.94;7391931;19;20010;-59
2023/08/27 11:18:20;;;;;;;0.10;0.03;;;;;;;19.61;100.00;99256.78;7391526;19;20010;-59
2023/08/27 11:20:46;;;;;;;0.10;0.10;;;;;;;19.84;100.00;99253.38;7392512;19;20011;-58
2023/08/27 11:23:12;;;;;;;0.10;0.00;;;;;;;19.86;100.00;99259.97;7396637;19;20066;-58
2023/08/27 11:25:39;;;;;;;0.10;0.10;;;;;;;19.94;100.00;99248.72;7390713;19;20010;-58
2023/08/27 11:28:06;;;;;;;0.10;0.00;;;;;;;19.92;100.00;99257.00;7392845;19;20011;-58
2023/08/27 11:30:33;;;;;;;0.22;0.00;;;;;;;20.02;100.00;99260.84;7399889;19;20011;-58
2023/08/27 11:32:59;;;;;;;0.73;0.10;;;;;;;20.15;100.00;99270.00;7403529;19;20011;-58
2023/08/27 11:35:26;;;;;;;0.10;0.10;;;;;;;20.14;100.00;99256.41;7400801;19;20021;-58